Terminal Aerodrome Forecast
Issued by NWS

Home | Current Version | Previous Version | Text Only | Print | Product List | Glossary On
Versions: 1 2 3 4 5 6 7 8 9 10 11 12
000
FTUS44 KCRP 070539
TAFLRD
TAF
KLRD 070539Z 0706/0806 14015G20KT P6SM SCT025
     FM071100 14012KT P6SM SCT020
      TEMPO 0711/0713 BKN020
     FM071500 15015G20KT P6SM SCT035 BKN250=

USA.gov is the U.S. government's official web portal to all federal, state and local government web resources and services.